sensor_id;sensor_type;location;lat;lon;timestamp;P1;durP1;ratioP1;P2;durP2;ratioP2
41921;SDS011;27609;51.002;5.354;2022-08-21T00:00:06;6.28;;;5.25;;
41921;SDS011;27609;51.002;5.354;2022-08-21T00:02:34;7.85;;;5.75;;
41921;SDS011;27609;51.002;5.354;2022-08-21T00:05:00;6.68;;;5.97;;
41921;SDS011;27609;51.002;5.354;2022-08-21T00:07:27;7.03;;;5.30;;
41921;SDS011;27609;51.002;5.354;2022-08-21T00:09:55;7.90;;;5.50;;
41921;SDS011;27609;51.002;5.354;2022-08-21T00:12:21;9.95;;;6.20;;
41921;SDS011;27609;51.002;5.354;2022-08-21T00:14:46;8.85;;;6.10;;
41921;SDS011;27609;51.002;5.354;2022-08-21T00:17:12;8.00;;;6.15;;
41921;SDS011;27609;51.002;5.354;2022-08-21T00:19:38;11.15;;;6.43;;
41921;SDS011;27609;51.002;5.354;2022-08-21T00:22:08;9.25;;;6.00;;
41921;SDS011;27609;51.002;5.354;2022-08-21T00:24:34;5.80;;;5.30;;
41921;SDS011;27609;51.002;5.354;2022-08-21T00:27:03;10.00;;;5.80;;
41921;SDS011;27609;51.002;5.354;2022-08-21T00:29:29;7.72;;;5.50;;
41921;SDS011;27609;51.002;5.354;2022-08-21T00:31:54;7.90;;;4.90;;
41921;SDS011;27609;51.002;5.354;2022-08-21T00:34:20;6.28;;;4.80;;
41921;SDS011;27609;51.002;5.354;2022-08-21T00:36:46;7.88;;;5.40;;
41921;SDS011;27609;51.002;5.354;2022-08-21T00:39:11;7.85;;;5.15;;
41921;SDS011;27609;51.002;5.354;2022-08-21T00:41:38;9.55;;;5.38;;
41921;SDS011;27609;51.002;5.354;2022-08-21T00:44:08;7.18;;;5.55;;
41921;SDS011;27609;51.002;5.354;2022-08-21T00:46:36;8.00;;;5.20;;
41921;SDS011;27609;51.002;5.354;2022-08-21T00:49:03;8.90;;;5.53;;
41921;SDS011;27609;51.002;5.354;2022-08-21T00:51:52;6.18;;;4.93;;
41921;SDS011;27609;51.002;5.354;2022-08-21T00:54:20;5.90;;;5.30;;
41921;SDS011;27609;51.002;5.354;2022-08-21T00:56:56;11.65;;;5.88;;
41921;SDS011;27609;51.002;5.354;2022-08-21T00:59:25;8.35;;;4.80;;
41921;SDS011;27609;51.002;5.354;2022-08-21T01:01:56;6.35;;;5.18;;
41921;SDS011;27609;51.002;5.354;2022-08-21T01:04:22;6.30;;;5.18;;
41921;SDS011;27609;51.002;5.354;2022-08-21T01:06:48;6.38;;;5.65;;
41921;SDS011;27609;51.002;5.354;2022-08-21T01:09:13;7.25;;;5.22;;
41921;SDS011;27609;51.002;5.354;2022-08-21T01:11:39;8.43;;;5.68;;
41921;SDS011;27609;51.002;5.354;2022-08-21T01:14:08;9.18;;;6.25;;
41921;SDS011;27609;51.002;5.354;2022-08-21T01:16:37;7.05;;;5.15;;
41921;SDS011;27609;51.002;5.354;2022-08-21T01:19:09;7.47;;;5.07;;
41921;SDS011;27609;51.002;5.354;2022-08-21T01:21:41;12.07;;;5.95;;
41921;SDS011;27609;51.002;5.354;2022-08-21T01:24:19;10.55;;;5.72;;
41921;SDS011;27609;51.002;5.354;2022-08-21T01:26:54;6.90;;;5.20;;
41921;SDS011;27609;51.002;5.354;2022-08-21T01:29:37;8.93;;;5.05;;
41921;SDS011;27609;51.002;5.354;2022-08-21T01:32:15;9.75;;;5.30;;
41921;SDS011;27609;51.002;5.354;2022-08-21T01:34:43;6.18;;;5.25;;
41921;SDS011;27609;51.002;5.354;2022-08-21T01:37:10;8.30;;;4.95;;
41921;SDS011;27609;51.002;5.354;2022-08-21T01:39:37;7.32;;;4.72;;
41921;SDS011;27609;51.002;5.354;2022-08-21T01:42:04;7.63;;;5.22;;
41921;SDS011;27609;51.002;5.354;2022-08-21T01:44:30;6.70;;;5.28;;
41921;SDS011;27609;51.002;5.354;2022-08-21T01:46:57;6.28;;;5.10;;
41921;SDS011;27609;51.002;5.354;2022-08-21T01:49:25;6.90;;;4.95;;
41921;SDS011;27609;51.002;5.354;2022-08-21T01:51:51;6.00;;;5.25;;
41921;SDS011;27609;51.002;5.354;2022-08-21T01:54:17;6.55;;;4.85;;
41921;SDS011;27609;51.002;5.354;2022-08-21T01:56:45;7.03;;;4.40;;
41921;SDS011;27609;51.002;5.354;2022-08-21T01:59:12;5.90;;;4.55;;
41921;SDS011;27609;51.002;5.354;2022-08-21T02:01:38;9.13;;;5.72;;
41921;SDS011;27609;51.002;5.354;2022-08-21T02:04:07;8.45;;;5.75;;
41921;SDS011;27609;51.002;5.354;2022-08-21T02:06:34;7.20;;;5.45;;
41921;SDS011;27609;51.002;5.354;2022-08-21T02:09:02;7.35;;;5.20;;
41921;SDS011;27609;51.002;5.354;2022-08-21T02:11:32;6.95;;;4.80;;
41921;SDS011;27609;51.002;5.354;2022-08-21T02:13:58;6.65;;;4.28;;
41921;SDS011;27609;51.002;5.354;2022-08-21T02:16:24;7.43;;;4.07;;
41921;SDS011;27609;51.002;5.354;2022-08-21T02:18:50;7.80;;;4.25;;
41921;SDS011;27609;51.002;5.354;2022-08-21T02:21:16;8.18;;;4.60;;
41921;SDS011;27609;51.002;5.354;2022-08-21T02:23:41;7.65;;;4.97;;
41921;SDS011;27609;51.002;5.354;2022-08-21T02:26:07;6.85;;;4.80;;
41921;SDS011;27609;51.002;5.354;2022-08-21T02:28:34;9.20;;;5.45;;
41921;SDS011;27609;51.002;5.354;2022-08-21T02:31:01;13.40;;;4.95;;
41921;SDS011;27609;51.002;5.354;2022-08-21T02:33:27;8.40;;;5.10;;
41921;SDS011;27609;51.002;5.354;2022-08-21T02:35:53;9.05;;;5.05;;
41921;SDS011;27609;51.002;5.354;2022-08-21T02:38:21;8.80;;;4.97;;
41921;SDS011;27609;51.002;5.354;2022-08-21T02:40:49;8.05;;;4.88;;
41921;SDS011;27609;51.002;5.354;2022-08-21T02:43:17;8.55;;;4.60;;
41921;SDS011;27609;51.002;5.354;2022-08-21T02:45:43;6.88;;;4.53;;
41921;SDS011;27609;51.002;5.354;2022-08-21T02:48:12;9.07;;;5.30;;
41921;SDS011;27609;51.002;5.354;2022-08-21T02:50:43;7.20;;;4.68;;
41921;SDS011;27609;51.002;5.354;2022-08-21T02:53:11;5.18;;;4.18;;
41921;SDS011;27609;51.002;5.354;2022-08-21T02:55:41;7.47;;;4.93;;
41921;SDS011;27609;51.002;5.354;2022-08-21T02:58:09;7.30;;;4.40;;
41921;SDS011;27609;51.002;5.354;2022-08-21T03:00:36;9.52;;;5.25;;
41921;SDS011;27609;51.002;5.354;2022-08-21T03:03:02;10.05;;;4.80;;
41921;SDS011;27609;51.002;5.354;2022-08-21T03:05:31;6.60;;;4.50;;
41921;SDS011;27609;51.002;5.354;2022-08-21T03:07:59;7.55;;;4.53;;
41921;SDS011;27609;51.002;5.354;2022-08-21T03:10:26;7.25;;;4.75;;
41921;SDS011;27609;51.002;5.354;2022-08-21T03:12:52;9.75;;;4.40;;
41921;SDS011;27609;51.002;5.354;2022-08-21T03:15:19;11.10;;;4.43;;
41921;SDS011;27609;51.002;5.354;2022-08-21T03:17:46;11.00;;;4.70;;
41921;SDS011;27609;51.002;5.354;2022-08-21T03:20:13;8.95;;;5.25;;
41921;SDS011;27609;51.002;5.354;2022-08-21T03:22:40;8.57;;;5.00;;
41921;SDS011;27609;51.002;5.354;2022-08-21T03:25:07;8.10;;;5.10;;
41921;SDS011;27609;51.002;5.354;2022-08-21T03:27:33;8.82;;;4.97;;
41921;SDS011;27609;51.002;5.354;2022-08-21T03:30:00;7.70;;;4.53;;
41921;SDS011;27609;51.002;5.354;2022-08-21T03:32:26;10.68;;;4.50;;
41921;SDS011;27609;51.002;5.354;2022-08-21T03:34:52;8.07;;;4.60;;
41921;SDS011;27609;51.002;5.354;2022-08-21T03:37:20;5.13;;;3.45;;
41921;SDS011;27609;51.002;5.354;2022-08-21T03:39:45;6.68;;;4.25;;
41921;SDS011;27609;51.002;5.354;2022-08-21T03:42:11;7.47;;;4.22;;
41921;SDS011;27609;51.002;5.354;2022-08-21T03:44:37;6.47;;;4.22;;
41921;SDS011;27609;51.002;5.354;2022-08-21T03:47:04;6.13;;;4.28;;
41921;SDS011;27609;51.002;5.354;2022-08-21T03:49:30;9.10;;;4.68;;
41921;SDS011;27609;51.002;5.354;2022-08-21T03:51:56;7.25;;;3.72;;
41921;SDS011;27609;51.002;5.354;2022-08-21T03:54:23;10.75;;;4.32;;
41921;SDS011;27609;51.002;5.354;2022-08-21T03:56:48;8.30;;;4.35;;
41921;SDS011;27609;51.002;5.354;2022-08-21T03:59:14;6.65;;;4.35;;
41921;SDS011;27609;51.002;5.354;2022-08-21T04:01:50;5.97;;;4.10;;
41921;SDS011;27609;51.002;5.354;2022-08-21T04:04:26;8.70;;;4.68;;
41921;SDS011;27609;51.002;5.354;2022-08-21T04:06:53;7.93;;;5.43;;
41921;SDS011;27609;51.002;5.354;2022-08-21T04:09:19;12.35;;;5.30;;
41921;SDS011;27609;51.002;5.354;2022-08-21T04:11:46;6.65;;;3.97;;
41921;SDS011;27609;51.002;5.354;2022-08-21T04:14:12;9.35;;;4.65;;
41921;SDS011;27609;51.002;5.354;2022-08-21T04:16:39;7.50;;;4.80;;
41921;SDS011;27609;51.002;5.354;2022-08-21T04:19:06;8.80;;;4.68;;
41921;SDS011;27609;51.002;5.354;2022-08-21T04:21:32;5.80;;;4.60;;
41921;SDS011;27609;51.002;5.354;2022-08-21T04:23:59;10.85;;;5.35;;
41921;SDS011;27609;51.002;5.354;2022-08-21T04:26:25;13.82;;;5.28;;
41921;SDS011;27609;51.002;5.354;2022-08-21T04:28:51;7.88;;;4.80;;
41921;SDS011;27609;51.002;5.354;2022-08-21T04:31:17;12.07;;;5.40;;
41921;SDS011;27609;51.002;5.354;2022-08-21T04:33:43;6.90;;;4.68;;
41921;SDS011;27609;51.002;5.354;2022-08-21T04:36:10;10.30;;;4.68;;
41921;SDS011;27609;51.002;5.354;2022-08-21T04:38:36;5.70;;;4.65;;
41921;SDS011;27609;51.002;5.354;2022-08-21T04:41:02;8.75;;;4.57;;
41921;SDS011;27609;51.002;5.354;2022-08-21T04:43:29;10.93;;;4.43;;
41921;SDS011;27609;51.002;5.354;2022-08-21T04:45:55;9.55;;;4.30;;
41921;SDS011;27609;51.002;5.354;2022-08-21T04:48:21;10.05;;;4.57;;
41921;SDS011;27609;51.002;5.354;2022-08-21T04:53:20;6.93;;;3.95;;
41921;SDS011;27609;51.002;5.354;2022-08-21T04:56:23;7.45;;;4.28;;
41921;SDS011;27609;51.002;5.354;2022-08-21T04:58:54;11.55;;;4.10;;
41921;SDS011;27609;51.002;5.354;2022-08-21T05:01:22;8.02;;;4.18;;
41921;SDS011;27609;51.002;5.354;2022-08-21T05:03:50;7.43;;;4.63;;
41921;SDS011;27609;51.002;5.354;2022-08-21T05:06:21;5.28;;;3.97;;
41921;SDS011;27609;51.002;5.354;2022-08-21T05:08:49;6.20;;;4.60;;
41921;SDS011;27609;51.002;5.354;2022-08-21T05:11:17;9.35;;;4.88;;
41921;SDS011;27609;51.002;5.354;2022-08-21T05:13:43;6.68;;;4.43;;
41921;SDS011;27609;51.002;5.354;2022-08-21T05:16:08;6.45;;;4.88;;
41921;SDS011;27609;51.002;5.354;2022-08-21T05:18:34;6.35;;;4.20;;
41921;SDS011;27609;51.002;5.354;2022-08-21T05:21:00;6.57;;;4.28;;
41921;SDS011;27609;51.002;5.354;2022-08-21T05:23:26;6.45;;;3.85;;
41921;SDS011;27609;51.002;5.354;2022-08-21T05:25:52;7.78;;;4.82;;
41921;SDS011;27609;51.002;5.354;2022-08-21T05:28:18;9.90;;;5.13;;
41921;SDS011;27609;51.002;5.354;2022-08-21T05:30:44;7.95;;;4.18;;
41921;SDS011;27609;51.002;5.354;2022-08-21T05:33:10;5.18;;;4.03;;
41921;SDS011;27609;51.002;5.354;2022-08-21T05:35:36;7.53;;;3.78;;
41921;SDS011;27609;51.002;5.354;2022-08-21T05:38:03;8.20;;;3.78;;
41921;SDS011;27609;51.002;5.354;2022-08-21T05:40:29;6.80;;;4.25;;
41921;SDS011;27609;51.002;5.354;2022-08-21T05:42:56;8.18;;;4.20;;
41921;SDS011;27609;51.002;5.354;2022-08-21T05:45:25;6.63;;;3.80;;
41921;SDS011;27609;51.002;5.354;2022-08-21T05:47:53;9.93;;;4.03;;
41921;SDS011;27609;51.002;5.354;2022-08-21T05:50:19;7.55;;;3.72;;
41921;SDS011;27609;51.002;5.354;2022-08-21T05:52:44;4.70;;;2.75;;
41921;SDS011;27609;51.002;5.354;2022-08-21T05:55:10;8.35;;;3.22;;
41921;SDS011;27609;51.002;5.354;2022-08-21T05:57:36;9.95;;;3.40;;
41921;SDS011;27609;51.002;5.354;2022-08-21T06:00:03;3.97;;;2.85;;
41921;SDS011;27609;51.002;5.354;2022-08-21T06:02:29;5.30;;;2.92;;
41921;SDS011;27609;51.002;5.354;2022-08-21T06:04:56;9.57;;;3.15;;
41921;SDS011;27609;51.002;5.354;2022-08-21T06:07:22;5.50;;;3.10;;
41921;SDS011;27609;51.002;5.354;2022-08-21T06:09:47;5.32;;;3.33;;
41921;SDS011;27609;51.002;5.354;2022-08-21T06:12:13;8.25;;;2.85;;
41921;SDS011;27609;51.002;5.354;2022-08-21T06:14:40;6.53;;;3.03;;
41921;SDS011;27609;51.002;5.354;2022-08-21T06:17:08;10.52;;;3.25;;
41921;SDS011;27609;51.002;5.354;2022-08-21T06:19:35;6.40;;;3.10;;
41921;SDS011;27609;51.002;5.354;2022-08-21T06:22:01;9.70;;;2.90;;
41921;SDS011;27609;51.002;5.354;2022-08-21T06:24:27;5.03;;;2.58;;
41921;SDS011;27609;51.002;5.354;2022-08-21T06:26:54;8.88;;;2.17;;
41921;SDS011;27609;51.002;5.354;2022-08-21T06:29:19;7.28;;;2.88;;
41921;SDS011;27609;51.002;5.354;2022-08-21T06:31:46;11.48;;;3.33;;
41921;SDS011;27609;51.002;5.354;2022-08-21T06:34:13;9.00;;;3.20;;
41921;SDS011;27609;51.002;5.354;2022-08-21T06:36:39;9.40;;;3.00;;
41921;SDS011;27609;51.002;5.354;2022-08-21T06:39:05;7.95;;;3.15;;
41921;SDS011;27609;51.002;5.354;2022-08-21T06:41:31;13.15;;;3.22;;
41921;SDS011;27609;51.002;5.354;2022-08-21T06:43:57;12.55;;;2.80;;
41921;SDS011;27609;51.002;5.354;2022-08-21T06:46:23;9.98;;;2.30;;
41921;SDS011;27609;51.002;5.354;2022-08-21T06:48:51;8.25;;;2.40;;
41921;SDS011;27609;51.002;5.354;2022-08-21T06:51:16;6.50;;;2.70;;
41921;SDS011;27609;51.002;5.354;2022-08-21T06:53:42;4.75;;;2.50;;
41921;SDS011;27609;51.002;5.354;2022-08-21T06:56:08;5.32;;;2.22;;
41921;SDS011;27609;51.002;5.354;2022-08-21T06:58:34;5.55;;;2.53;;
41921;SDS011;27609;51.002;5.354;2022-08-21T07:01:00;10.95;;;2.35;;
41921;SDS011;27609;51.002;5.354;2022-08-21T07:03:27;5.25;;;2.33;;
41921;SDS011;27609;51.002;5.354;2022-08-21T07:05:55;6.63;;;2.17;;
41921;SDS011;27609;51.002;5.354;2022-08-21T07:08:25;7.93;;;2.10;;
41921;SDS011;27609;51.002;5.354;2022-08-21T07:10:52;7.68;;;2.03;;
41921;SDS011;27609;51.002;5.354;2022-08-21T07:13:19;10.60;;;2.70;;
41921;SDS011;27609;51.002;5.354;2022-08-21T07:15:44;4.13;;;1.88;;
41921;SDS011;27609;51.002;5.354;2022-08-21T07:18:11;7.35;;;2.67;;
41921;SDS011;27609;51.002;5.354;2022-08-21T07:20:38;6.00;;;2.40;;
41921;SDS011;27609;51.002;5.354;2022-08-21T07:23:06;9.40;;;2.55;;
41921;SDS011;27609;51.002;5.354;2022-08-21T07:25:34;6.28;;;2.50;;
41921;SDS011;27609;51.002;5.354;2022-08-21T07:28:00;10.07;;;2.30;;
41921;SDS011;27609;51.002;5.354;2022-08-21T07:30:26;6.65;;;1.80;;
41921;SDS011;27609;51.002;5.354;2022-08-21T07:32:52;8.20;;;2.15;;
41921;SDS011;27609;51.002;5.354;2022-08-21T07:35:18;10.98;;;2.10;;
41921;SDS011;27609;51.002;5.354;2022-08-21T07:37:45;8.27;;;2.47;;
41921;SDS011;27609;51.002;5.354;2022-08-21T07:40:11;5.95;;;1.95;;
41921;SDS011;27609;51.002;5.354;2022-08-21T07:42:41;4.82;;;1.70;;
41921;SDS011;27609;51.002;5.354;2022-08-21T07:45:09;12.68;;;1.90;;
41921;SDS011;27609;51.002;5.354;2022-08-21T07:47:36;7.20;;;2.03;;
41921;SDS011;27609;51.002;5.354;2022-08-21T07:50:03;8.07;;;2.15;;
41921;SDS011;27609;51.002;5.354;2022-08-21T07:52:30;7.35;;;2.05;;
41921;SDS011;27609;51.002;5.354;2022-08-21T07:54:55;9.02;;;2.55;;
41921;SDS011;27609;51.002;5.354;2022-08-21T07:57:21;7.18;;;1.90;;
41921;SDS011;27609;51.002;5.354;2022-08-21T07:59:47;5.18;;;1.80;;
41921;SDS011;27609;51.002;5.354;2022-08-21T08:02:25;7.85;;;1.80;;
41921;SDS011;27609;51.002;5.354;2022-08-21T08:04:52;4.97;;;1.80;;
41921;SDS011;27609;51.002;5.354;2022-08-21T08:07:18;5.32;;;2.13;;
41921;SDS011;27609;51.002;5.354;2022-08-21T08:09:44;6.82;;;2.40;;
41921;SDS011;27609;51.002;5.354;2022-08-21T08:12:13;4.33;;;1.50;;
41921;SDS011;27609;51.002;5.354;2022-08-21T08:14:38;4.63;;;1.50;;
41921;SDS011;27609;51.002;5.354;2022-08-21T08:17:04;7.00;;;1.95;;
41921;SDS011;27609;51.002;5.354;2022-08-21T08:19:30;8.02;;;2.13;;
41921;SDS011;27609;51.002;5.354;2022-08-21T08:21:56;4.53;;;1.58;;
41921;SDS011;27609;51.002;5.354;2022-08-21T08:24:22;5.15;;;2.00;;
41921;SDS011;27609;51.002;5.354;2022-08-21T08:26:48;6.35;;;1.83;;
41921;SDS011;27609;51.002;5.354;2022-08-21T08:29:13;4.20;;;1.88;;
41921;SDS011;27609;51.002;5.354;2022-08-21T08:31:39;3.30;;;1.55;;
41921;SDS011;27609;51.002;5.354;2022-08-21T08:34:05;7.35;;;1.80;;
41921;SDS011;27609;51.002;5.354;2022-08-21T08:36:32;4.30;;;1.77;;
41921;SDS011;27609;51.002;5.354;2022-08-21T08:39:00;6.28;;;1.52;;
41921;SDS011;27609;51.002;5.354;2022-08-21T08:41:27;7.18;;;1.85;;
41921;SDS011;27609;51.002;5.354;2022-08-21T08:43:55;4.90;;;1.70;;
41921;SDS011;27609;51.002;5.354;2022-08-21T08:46:31;7.15;;;1.83;;
41921;SDS011;27609;51.002;5.354;2022-08-21T08:49:11;7.03;;;1.50;;
41921;SDS011;27609;51.002;5.354;2022-08-21T08:57:10;6.28;;;1.85;;
41921;SDS011;27609;51.002;5.354;2022-08-21T08:59:43;9.23;;;1.90;;
41921;SDS011;27609;51.002;5.354;2022-08-21T09:02:14;5.88;;;1.85;;
41921;SDS011;27609;51.002;5.354;2022-08-21T09:04:41;7.80;;;1.70;;
41921;SDS011;27609;51.002;5.354;2022-08-21T09:15:02;3.97;;;1.30;;
41921;SDS011;27609;51.002;5.354;2022-08-21T09:23:32;8.90;;;1.98;;
41921;SDS011;27609;51.002;5.354;2022-08-21T09:26:11;6.03;;;1.23;;
41921;SDS011;27609;51.002;5.354;2022-08-21T09:28:39;3.65;;;1.20;;
41921;SDS011;27609;51.002;5.354;2022-08-21T09:31:11;3.80;;;1.10;;
41921;SDS011;27609;51.002;5.354;2022-08-21T09:33:40;6.63;;;1.30;;
41921;SDS011;27609;51.002;5.354;2022-08-21T09:36:06;3.63;;;1.15;;
41921;SDS011;27609;51.002;5.354;2022-08-21T09:38:35;6.50;;;1.60;;
41921;SDS011;27609;51.002;5.354;2022-08-21T09:41:07;3.90;;;1.00;;
41921;SDS011;27609;51.002;5.354;2022-08-21T09:43:34;3.50;;;1.00;;
41921;SDS011;27609;51.002;5.354;2022-08-21T09:46:11;3.30;;;1.13;;
41921;SDS011;27609;51.002;5.354;2022-08-21T09:48:46;5.38;;;1.23;;
41921;SDS011;27609;51.002;5.354;2022-08-21T09:51:15;3.78;;;1.17;;
41921;SDS011;27609;51.002;5.354;2022-08-21T09:53:48;2.70;;;0.95;;
41921;SDS011;27609;51.002;5.354;2022-08-21T09:57:01;3.80;;;1.25;;
41921;SDS011;27609;51.002;5.354;2022-08-21T09:59:37;3.63;;;1.17;;
41921;SDS011;27609;51.002;5.354;2022-08-21T10:02:25;6.43;;;1.33;;
41921;SDS011;27609;51.002;5.354;2022-08-21T10:04:57;4.15;;;1.10;;
41921;SDS011;27609;51.002;5.354;2022-08-21T10:07:29;2.28;;;0.98;;
41921;SDS011;27609;51.002;5.354;2022-08-21T10:10:00;4.20;;;1.05;;
41921;SDS011;27609;51.002;5.354;2022-08-21T10:12:41;3.33;;;1.20;;
41921;SDS011;27609;51.002;5.354;2022-08-21T10:15:46;2.33;;;0.88;;
41921;SDS011;27609;51.002;5.354;2022-08-21T10:18:22;5.43;;;1.00;;
41921;SDS011;27609;51.002;5.354;2022-08-21T10:21:18;2.85;;;0.82;;
41921;SDS011;27609;51.002;5.354;2022-08-21T10:39:47;4.57;;;1.27;;
41921;SDS011;27609;51.002;5.354;2022-08-21T10:42:31;6.22;;;1.35;;
41921;SDS011;27609;51.002;5.354;2022-08-21T10:45:15;4.72;;;0.90;;
41921;SDS011;27609;51.002;5.354;2022-08-21T10:48:02;3.10;;;1.15;;
41921;SDS011;27609;51.002;5.354;2022-08-21T10:53:19;2.65;;;1.30;;
41921;SDS011;27609;51.002;5.354;2022-08-21T10:56:20;6.63;;;1.35;;
41921;SDS011;27609;51.002;5.354;2022-08-21T10:59:00;9.23;;;1.63;;
41921;SDS011;27609;51.002;5.354;2022-08-21T11:01:46;4.57;;;1.35;;
41921;SDS011;27609;51.002;5.354;2022-08-21T11:04:31;3.72;;;1.42;;
41921;SDS011;27609;51.002;5.354;2022-08-21T11:09:36;3.97;;;0.98;;
41921;SDS011;27609;51.002;5.354;2022-08-21T11:12:06;6.28;;;1.70;;
41921;SDS011;27609;51.002;5.354;2022-08-21T11:14:57;6.03;;;1.55;;
41921;SDS011;27609;51.002;5.354;2022-08-21T11:21:19;6.17;;;1.53;;
41921;SDS011;27609;51.002;5.354;2022-08-21T11:24:02;3.65;;;1.02;;
41921;SDS011;27609;51.002;5.354;2022-08-21T11:26:39;7.38;;;1.90;;
41921;SDS011;27609;51.002;5.354;2022-08-21T11:29:28;5.70;;;1.50;;
41921;SDS011;27609;51.002;5.354;2022-08-21T11:34:37;3.10;;;1.33;;
41921;SDS011;27609;51.002;5.354;2022-08-21T11:40:24;3.13;;;1.20;;
41921;SDS011;27609;51.002;5.354;2022-08-21T11:43:04;4.60;;;1.20;;
41921;SDS011;27609;51.002;5.354;2022-08-21T11:45:52;4.20;;;1.25;;
41921;SDS011;27609;51.002;5.354;2022-08-21T11:51:00;7.82;;;1.88;;
41921;SDS011;27609;51.002;5.354;2022-08-21T11:53:38;3.53;;;1.25;;
41921;SDS011;27609;51.002;5.354;2022-08-21T11:56:17;3.55;;;1.33;;
41921;SDS011;27609;51.002;5.354;2022-08-21T11:58:49;5.00;;;1.67;;
41921;SDS011;27609;51.002;5.354;2022-08-21T12:01:19;4.78;;;1.52;;
41921;SDS011;27609;51.002;5.354;2022-08-21T12:03:53;7.72;;;1.90;;
41921;SDS011;27609;51.002;5.354;2022-08-21T12:06:41;4.38;;;1.45;;
41921;SDS011;27609;51.002;5.354;2022-08-21T12:09:11;5.43;;;1.70;;
41921;SDS011;27609;51.002;5.354;2022-08-21T12:14:37;4.82;;;1.45;;
41921;SDS011;27609;51.002;5.354;2022-08-21T12:17:21;4.60;;;1.55;;
41921;SDS011;27609;51.002;5.354;2022-08-21T12:19:59;6.15;;;1.52;;
41921;SDS011;27609;51.002;5.354;2022-08-21T12:22:39;6.38;;;1.73;;
41921;SDS011;27609;51.002;5.354;2022-08-21T12:27:52;6.25;;;1.50;;
41921;SDS011;27609;51.002;5.354;2022-08-21T12:33:02;4.55;;;1.40;;
41921;SDS011;27609;51.002;5.354;2022-08-21T12:35:42;4.00;;;1.27;;
41921;SDS011;27609;51.002;5.354;2022-08-21T12:38:32;5.05;;;1.48;;
41921;SDS011;27609;51.002;5.354;2022-08-21T12:41:05;6.70;;;1.35;;
41921;SDS011;27609;51.002;5.354;2022-08-21T12:43:42;3.72;;;1.92;;
41921;SDS011;27609;51.002;5.354;2022-08-21T12:46:20;6.25;;;1.63;;
41921;SDS011;27609;51.002;5.354;2022-08-21T12:49:02;4.75;;;1.35;;
41921;SDS011;27609;51.002;5.354;2022-08-21T12:51:42;4.82;;;1.77;;
41921;SDS011;27609;51.002;5.354;2022-08-21T12:54:21;5.40;;;1.65;;
41921;SDS011;27609;51.002;5.354;2022-08-21T12:56:55;4.30;;;1.40;;
41921;SDS011;27609;51.002;5.354;2022-08-21T12:59:26;6.40;;;1.83;;
41921;SDS011;27609;51.002;5.354;2022-08-21T13:01:55;7.55;;;2.05;;
41921;SDS011;27609;51.002;5.354;2022-08-21T13:04:24;5.03;;;1.67;;
41921;SDS011;27609;51.002;5.354;2022-08-21T13:07:05;4.90;;;1.35;;
41921;SDS011;27609;51.002;5.354;2022-08-21T13:09:36;5.50;;;1.60;;
41921;SDS011;27609;51.002;5.354;2022-08-21T13:12:14;3.13;;;1.55;;
41921;SDS011;27609;51.002;5.354;2022-08-21T13:14:43;8.55;;;1.70;;
41921;SDS011;27609;51.002;5.354;2022-08-21T13:17:11;7.65;;;1.70;;
41921;SDS011;27609;51.002;5.354;2022-08-21T13:19:40;5.13;;;1.58;;
41921;SDS011;27609;51.002;5.354;2022-08-21T13:22:11;4.35;;;1.88;;
41921;SDS011;27609;51.002;5.354;2022-08-21T13:24:38;6.10;;;1.50;;
41921;SDS011;27609;51.002;5.354;2022-08-21T13:30:13;5.53;;;1.23;;
41921;SDS011;27609;51.002;5.354;2022-08-21T13:32:44;3.10;;;1.53;;
41921;SDS011;27609;51.002;5.354;2022-08-21T13:35:18;3.95;;;1.45;;
41921;SDS011;27609;51.002;5.354;2022-08-21T13:37:55;5.95;;;1.42;;
41921;SDS011;27609;51.002;5.354;2022-08-21T13:40:28;6.55;;;1.85;;
41921;SDS011;27609;51.002;5.354;2022-08-21T13:43:04;5.22;;;1.30;;
41921;SDS011;27609;51.002;5.354;2022-08-21T13:45:42;4.18;;;1.60;;
41921;SDS011;27609;51.002;5.354;2022-08-21T13:48:12;4.55;;;1.38;;
41921;SDS011;27609;51.002;5.354;2022-08-21T13:50:39;4.20;;;1.20;;
41921;SDS011;27609;51.002;5.354;2022-08-21T13:53:18;6.87;;;1.87;;
41921;SDS011;27609;51.002;5.354;2022-08-21T13:55:56;5.57;;;1.77;;
41921;SDS011;27609;51.002;5.354;2022-08-21T14:00:51;6.90;;;1.70;;
41921;SDS011;27609;51.002;5.354;2022-08-21T14:03:26;6.13;;;1.50;;
41921;SDS011;27609;51.002;5.354;2022-08-21T14:05:52;5.70;;;2.08;;
41921;SDS011;27609;51.002;5.354;2022-08-21T14:08:29;3.38;;;1.35;;
41921;SDS011;27609;51.002;5.354;2022-08-21T14:11:02;7.38;;;1.58;;
41921;SDS011;27609;51.002;5.354;2022-08-21T14:13:37;3.58;;;1.20;;
41921;SDS011;27609;51.002;5.354;2022-08-21T14:16:10;6.35;;;1.38;;
41921;SDS011;27609;51.002;5.354;2022-08-21T14:21:37;5.97;;;1.60;;
41921;SDS011;27609;51.002;5.354;2022-08-21T14:24:12;4.57;;;1.63;;
41921;SDS011;27609;51.002;5.354;2022-08-21T14:26:56;5.78;;;1.67;;
41921;SDS011;27609;51.002;5.354;2022-08-21T14:29:27;4.90;;;1.63;;
41921;SDS011;27609;51.002;5.354;2022-08-21T14:32:08;3.97;;;1.50;;
41921;SDS011;27609;51.002;5.354;2022-08-21T14:34:45;8.07;;;1.20;;
41921;SDS011;27609;51.002;5.354;2022-08-21T14:37:13;7.97;;;1.35;;
41921;SDS011;27609;51.002;5.354;2022-08-21T14:39:41;6.47;;;1.52;;
41921;SDS011;27609;51.002;5.354;2022-08-21T14:42:07;4.45;;;1.20;;
41921;SDS011;27609;51.002;5.354;2022-08-21T14:44:35;5.15;;;1.63;;
41921;SDS011;27609;51.002;5.354;2022-08-21T14:47:01;5.78;;;1.38;;
41921;SDS011;27609;51.002;5.354;2022-08-21T14:49:29;5.80;;;1.60;;
41921;SDS011;27609;51.002;5.354;2022-08-21T14:51:56;5.22;;;1.52;;
41921;SDS011;27609;51.002;5.354;2022-08-21T14:54:26;5.32;;;1.35;;
41921;SDS011;27609;51.002;5.354;2022-08-21T14:56:53;4.53;;;1.38;;
41921;SDS011;27609;51.002;5.354;2022-08-21T14:59:22;6.43;;;1.60;;
41921;SDS011;27609;51.002;5.354;2022-08-21T15:01:48;6.18;;;1.58;;
41921;SDS011;27609;51.002;5.354;2022-08-21T15:04:15;4.80;;;1.45;;
41921;SDS011;27609;51.002;5.354;2022-08-21T15:06:46;7.10;;;1.45;;
41921;SDS011;27609;51.002;5.354;2022-08-21T15:09:14;6.30;;;1.30;;
41921;SDS011;27609;51.002;5.354;2022-08-21T15:11:39;5.03;;;1.58;;
41921;SDS011;27609;51.002;5.354;2022-08-21T15:14:06;5.45;;;1.58;;
41921;SDS011;27609;51.002;5.354;2022-08-21T15:16:35;4.10;;;1.40;;
41921;SDS011;27609;51.002;5.354;2022-08-21T15:19:01;7.53;;;1.77;;
41921;SDS011;27609;51.002;5.354;2022-08-21T15:21:27;9.45;;;1.25;;
41921;SDS011;27609;51.002;5.354;2022-08-21T15:23:52;5.00;;;1.60;;
41921;SDS011;27609;51.002;5.354;2022-08-21T15:26:19;6.05;;;4.20;;
41921;SDS011;27609;51.002;5.354;2022-08-21T15:28:47;16.83;;;13.30;;
41921;SDS011;27609;51.002;5.354;2022-08-21T15:31:13;3.97;;;1.73;;
41921;SDS011;27609;51.002;5.354;2022-08-21T15:33:40;7.07;;;1.75;;
41921;SDS011;27609;51.002;5.354;2022-08-21T15:36:06;5.43;;;1.48;;
41921;SDS011;27609;51.002;5.354;2022-08-21T15:38:33;5.13;;;1.42;;
41921;SDS011;27609;51.002;5.354;2022-08-21T15:40:59;4.97;;;1.30;;
41921;SDS011;27609;51.002;5.354;2022-08-21T15:43:28;5.00;;;1.60;;
41921;SDS011;27609;51.002;5.354;2022-08-21T15:46:06;5.25;;;1.35;;
41921;SDS011;27609;51.002;5.354;2022-08-21T15:48:36;5.75;;;2.10;;
41921;SDS011;27609;51.002;5.354;2022-08-21T15:51:02;5.30;;;1.85;;
41921;SDS011;27609;51.002;5.354;2022-08-21T15:53:28;5.55;;;1.58;;
41921;SDS011;27609;51.002;5.354;2022-08-21T15:55:53;12.88;;;2.22;;
41921;SDS011;27609;51.002;5.354;2022-08-21T15:58:19;7.68;;;1.98;;
41921;SDS011;27609;51.002;5.354;2022-08-21T16:00:46;6.70;;;2.03;;
41921;SDS011;27609;51.002;5.354;2022-08-21T16:03:13;6.90;;;1.70;;
41921;SDS011;27609;51.002;5.354;2022-08-21T16:05:42;9.68;;;1.63;;
41921;SDS011;27609;51.002;5.354;2022-08-21T16:08:09;8.13;;;1.88;;
41921;SDS011;27609;51.002;5.354;2022-08-21T16:10:36;6.50;;;1.40;;
41921;SDS011;27609;51.002;5.354;2022-08-21T16:13:04;3.80;;;1.38;;